Airport View

Enter AWOS ICAO identifier for current METAR.

ex. KFNL

KGEU 250158Z 00000KT 10SM BKN080 OVC160 26/08 A2982 RMK LAST

25 Oct 2020 11:29

Frequency: 119.425

Phone: 623-877-8609

Other Area AWOS: KGYR - KLUF - KDVT - KPHX

TAF KLUF 232000Z 2320/2502 VRB06KT 9999 FEW250 QNH2991INS TEMPO 2321/2402 21012KT SCT300 BECMG 2403/2404 VRB06KT 9999 SCT250 QNH2983INS TX33/2323Z TN16/2414Z LAST NO AMDS AFT 2323 NEXT 2612